Annabella, Utah
Current Conditions -  °F | °C
As of 8:55 PM on Tuesday 25 Nov 2014 (Local Time) from KDTA Reporting Station
Clear Clear  
Wind Chill: 36°   Ceiling: Unl
Heat Index: 36°   Visibility: 10mi
Dew Point: 20°   Wind: 3mph
Humidity: 53%   Direction: 40°NE
Pressure: 30.36"   Gusts: NA
Location:  38.71°N, 112.06°W
Report Text: KDTA 260355Z AUTO 04003KT 10SM CLR 02/M07 A3036 RMK AO1 T00201066
Loading
Personal Weather Stations






























Interactive Weather Map New forecast layout! Learn more

10-Day Weather Forecast

Advertisements
Track Severe Weather on mobile